createdAt,value
2023-05-11T00:00:52.727Z,12.63
2023-05-11T00:03:21.028Z,13.17
2023-05-11T00:05:50.125Z,13.03
2023-05-11T00:08:20.012Z,14.30
2023-05-11T00:10:48.942Z,12.70
2023-05-11T00:13:17.229Z,13.27
2023-05-11T00:15:46.789Z,13.67
2023-05-11T00:18:14.989Z,14.47
2023-05-11T00:20:43.156Z,14.33
2023-05-11T00:23:11.347Z,15.77
2023-05-11T00:25:39.924Z,14.47
2023-05-11T00:28:08.169Z,13.60
2023-05-11T00:30:36.342Z,14.83
2023-05-11T00:33:05.973Z,13.67
2023-05-11T00:35:34.250Z,14.23
2023-05-11T00:38:02.471Z,15.23
2023-05-11T00:40:32.558Z,14.37
2023-05-11T00:43:00.758Z,13.53
2023-05-11T00:45:29.112Z,13.23
2023-05-11T00:47:57.558Z,13.40
2023-05-11T00:50:27.578Z,13.07
2023-05-11T00:52:55.852Z,12.97
2023-05-11T00:55:24.148Z,12.70
2023-05-11T00:57:52.368Z,14.97
2023-05-11T01:00:20.915Z,13.80
2023-05-11T01:02:49.575Z,13.30
2023-05-11T01:05:18.020Z,13.77
2023-05-11T01:07:51.085Z,13.67
2023-05-11T01:10:22.738Z,13.93
2023-05-11T01:12:57.535Z,13.43
2023-05-11T01:15:27.192Z,13.67
2023-05-11T01:17:57.844Z,14.70
2023-05-11T01:20:27.960Z,13.97
2023-05-11T01:23:04.522Z,14.53
2023-05-11T01:25:53.451Z,14.67
2023-05-11T01:28:40.320Z,13.67
2023-05-11T01:31:11.351Z,16.17
2023-05-11T01:33:41.348Z,15.10
2023-05-11T01:36:11.720Z,14.20
2023-05-11T01:38:41.925Z,13.90
2023-05-11T01:41:11.921Z,13.70
2023-05-11T01:43:42.107Z,14.47
2023-05-11T01:46:12.264Z,13.53
2023-05-11T01:48:41.521Z,13.13
2023-05-11T01:51:09.949Z,14.43
2023-05-11T01:53:39.741Z,13.50
2023-05-11T01:56:08.676Z,15.77
2023-05-11T01:58:38.006Z,16.17
2023-05-11T02:01:06.703Z,15.73
2023-05-11T02:03:37.664Z,15.60
2023-05-11T02:06:06.440Z,16.00
2023-05-11T02:08:35.087Z,16.43
2023-05-11T02:11:04.308Z,14.17
2023-05-11T02:13:33.342Z,14.33
2023-05-11T02:16:02.626Z,14.67
2023-05-11T02:18:31.403Z,14.83
2023-05-11T02:21:01.833Z,14.07
2023-05-11T02:23:32.100Z,15.63
2023-05-11T02:26:00.738Z,15.23
2023-05-11T02:28:28.957Z,15.13
2023-05-11T02:30:58.042Z,17.53
2023-05-11T02:33:28.930Z,16.20
2023-05-11T02:35:57.869Z,16.63
2023-05-11T02:38:30.293Z,15.40
2023-05-11T02:41:00.891Z,18.40
2023-05-11T02:43:32.732Z,15.60
2023-05-11T02:46:02.393Z,15.43
2023-05-11T02:48:32.378Z,15.53
2023-05-11T02:51:02.669Z,15.77
2023-05-11T02:53:34.004Z,15.43
2023-05-11T02:56:02.341Z,15.67
2023-05-11T02:58:30.804Z,16.37
2023-05-11T03:00:59.556Z,16.97
2023-05-11T03:03:28.412Z,17.03
2023-05-11T03:05:56.622Z,16.60
2023-05-11T03:08:24.869Z,16.13
2023-05-11T03:10:54.817Z,15.93
2023-05-11T03:13:24.258Z,15.37
2023-05-11T03:15:53.480Z,14.90
2023-05-11T03:18:22.918Z,14.93
2023-05-11T03:20:51.922Z,15.83
2023-05-11T03:23:20.400Z,16.17
2023-05-11T03:25:48.827Z,15.77
2023-05-11T03:28:19.686Z,16.90
2023-05-11T03:30:48.355Z,16.40
2023-05-11T03:33:16.618Z,17.90
2023-05-11T03:35:45.613Z,19.10
2023-05-11T03:38:14.531Z,18.90
2023-05-11T03:40:43.673Z,17.97
2023-05-11T03:43:13.375Z,17.57
2023-05-11T03:45:44.666Z,19.30
2023-05-11T03:48:13.612Z,19.17
2023-05-11T03:50:42.289Z,19.10
2023-05-11T03:53:10.833Z,18.63
2023-05-11T03:55:39.283Z,18.67
2023-05-11T03:58:08.337Z,18.30
2023-05-11T04:00:39.402Z,20.00
2023-05-11T04:03:09.567Z,20.17
2023-05-11T04:05:37.972Z,18.60
2023-05-11T04:08:06.578Z,20.27
2023-05-11T04:10:35.066Z,19.77
2023-05-11T04:13:03.929Z,21.33
2023-05-11T04:15:32.111Z,19.80
2023-05-11T04:18:00.438Z,21.77
2023-05-11T04:20:30.127Z,20.43
2023-05-11T04:22:58.315Z,21.30
2023-05-11T04:25:27.500Z,18.90
2023-05-11T04:27:55.769Z,19.57
2023-05-11T04:30:24.029Z,20.23
2023-05-11T04:32:52.396Z,19.27
2023-05-11T04:35:21.928Z,19.60
2023-05-11T04:37:51.556Z,18.83
2023-05-11T04:40:19.997Z,19.73
2023-05-11T04:42:48.434Z,18.40
2023-05-11T04:45:16.653Z,19.10
2023-05-11T04:47:44.986Z,18.93
2023-05-11T04:50:13.296Z,21.10
2023-05-11T04:52:41.524Z,18.67
2023-05-11T04:55:11.824Z,19.20
2023-05-11T04:57:40.041Z,26.10
2023-05-11T05:00:09.472Z,19.43
2023-05-11T05:02:37.798Z,22.50
2023-05-11T05:05:06.330Z,19.33
2023-05-11T05:07:34.550Z,18.57
2023-05-11T05:10:03.946Z,18.80
2023-05-11T05:12:33.574Z,18.67
2023-05-11T05:15:01.816Z,17.43
2023-05-11T05:17:30.062Z,19.27
2023-05-11T05:19:59.001Z,18.77
2023-05-11T05:22:27.525Z,20.00
2023-05-11T05:24:55.753Z,22.50
2023-05-11T05:27:23.981Z,20.23
2023-05-11T05:29:53.647Z,21.77
2023-05-11T05:32:21.959Z,21.53
2023-05-11T05:34:50.325Z,22.57
2023-05-11T05:37:18.567Z,20.33
2023-05-11T05:39:48.408Z,20.83
2023-05-11T05:42:16.908Z,18.87
2023-05-11T05:44:45.144Z,19.40
2023-05-11T05:47:14.667Z,19.87
2023-05-11T05:49:46.094Z,17.67
2023-05-11T05:52:14.271Z,18.70
2023-05-11T05:54:42.471Z,18.50
2023-05-11T05:57:10.670Z,18.23
2023-05-11T05:59:38.864Z,22.13
2023-05-11T06:02:07.464Z,20.33
2023-05-11T06:04:37.111Z,19.70
2023-05-11T06:07:05.411Z,18.50
2023-05-11T06:09:33.706Z,20.33
2023-05-11T06:12:02.300Z,18.60
2023-05-11T06:14:31.596Z,21.97
2023-05-11T06:16:59.835Z,18.33
2023-05-11T06:19:28.061Z,20.53
2023-05-11T06:21:57.669Z,20.13
2023-05-11T06:24:25.964Z,20.73
2023-05-11T06:26:54.167Z,19.40
2023-05-11T06:29:22.413Z,26.13
2023-05-11T06:31:52.891Z,20.70
2023-05-11T06:34:21.196Z,21.83
2023-05-11T06:36:49.636Z,22.80
2023-05-11T06:39:19.282Z,21.33
2023-05-11T06:41:47.569Z,22.47
2023-05-11T06:44:15.836Z,24.40
2023-05-11T06:46:44.040Z,20.20
2023-05-11T06:49:12.276Z,19.83
2023-05-11T06:51:40.537Z,20.63
2023-05-11T06:54:08.767Z,20.20
2023-05-11T06:56:38.287Z,19.50
2023-05-11T06:59:06.799Z,20.50
2023-05-11T07:01:35.103Z,20.43
2023-05-11T07:04:03.715Z,18.87
2023-05-11T07:06:33.086Z,20.57
2023-05-11T07:09:01.366Z,17.70
2023-05-11T07:11:29.755Z,24.37
2023-05-11T07:13:59.301Z,19.30
2023-05-11T07:16:27.534Z,17.27
2023-05-11T07:18:56.183Z,18.70
2023-05-11T07:21:24.672Z,19.17
2023-05-11T07:23:52.875Z,19.80
2023-05-11T07:26:21.996Z,18.60
2023-05-11T07:28:52.052Z,19.97
2023-05-11T07:31:21.618Z,18.43
2023-05-11T07:33:49.856Z,15.97
2023-05-11T07:36:18.384Z,14.37
2023-05-11T07:38:46.651Z,14.20
2023-05-11T07:41:14.896Z,14.90
2023-05-11T07:43:43.113Z,14.23
2023-05-11T07:46:11.352Z,12.90
2023-05-11T07:48:40.931Z,13.07
2023-05-11T07:51:09.270Z,12.67
2023-05-11T07:53:37.523Z,13.23
2023-05-11T07:56:06.105Z,9.80
2023-05-11T07:58:34.332Z,8.43
2023-05-11T08:01:02.615Z,7.83
2023-05-11T08:03:30.884Z,7.00
2023-05-11T08:06:00.647Z,4.57
2023-05-11T08:08:30.112Z,4.37
2023-05-11T08:10:58.371Z,5.90
2023-05-11T08:13:26.617Z,3.07
2023-05-11T08:15:54.844Z,2.60
2023-05-11T08:18:23.202Z,2.60
2023-05-11T08:20:51.738Z,3.17
2023-05-11T08:23:21.290Z,6.73
2023-05-11T08:25:52.863Z,3.40
2023-05-11T08:28:21.073Z,3.93
2023-05-11T08:30:55.058Z,2.40
2023-05-11T08:35:58.067Z,2.30
2023-05-11T08:38:27.660Z,2.03
2023-05-11T08:40:56.300Z,3.20
2023-05-11T08:43:24.793Z,2.80
2023-05-11T08:45:58.314Z,2.07
2023-05-11T08:48:26.743Z,2.13
2023-05-11T08:50:55.006Z,1.80
2023-05-11T08:53:24.811Z,1.97
2023-05-11T08:55:56.439Z,3.70
2023-05-11T08:58:24.703Z,107.72
2023-05-11T09:00:53.541Z,7.90
2023-05-11T09:03:22.356Z,3.05
2023-05-11T09:05:51.123Z,3.30
2023-05-11T09:08:20.329Z,2.90
2023-05-11T09:10:48.653Z,2.78
2023-05-11T09:13:18.261Z,4.38
2023-05-11T09:15:46.484Z,3.42
2023-05-11T09:18:14.812Z,2.80
2023-05-11T09:20:44.930Z,3.15
2023-05-11T09:23:13.169Z,4.45
2023-05-11T09:25:41.508Z,29.85
2023-05-11T09:28:15.666Z,19.70
2023-05-11T09:30:45.706Z,4.22
2023-05-11T09:33:13.900Z,2.47
2023-05-11T09:35:44.507Z,1.85
2023-05-11T09:38:14.127Z,1.35
2023-05-11T09:40:43.513Z,2.03
2023-05-11T09:43:18.065Z,2.38
2023-05-11T09:45:48.232Z,1.55
2023-05-11T09:48:26.337Z,1.83
2023-05-11T09:51:00.249Z,1.80
2023-05-11T09:53:36.024Z,2.35
2023-05-11T09:56:04.669Z,1.80
2023-05-11T09:58:52.498Z,1.30
2023-05-11T10:01:30.754Z,1.60
2023-05-11T10:04:13.295Z,1.60
2023-05-11T10:06:49.500Z,1.27
2023-05-11T10:09:18.434Z,1.58
2023-05-11T10:11:47.452Z,1.80
2023-05-11T10:14:16.141Z,2.00
2023-05-11T10:16:46.503Z,2.17
2023-05-11T10:19:15.063Z,1.60
2023-05-11T10:21:43.317Z,1.52
2023-05-11T10:24:13.752Z,2.10
2023-05-11T10:26:42.523Z,1.98
2023-05-11T10:29:11.423Z,2.00
2023-05-11T10:31:39.956Z,2.45
2023-05-11T10:34:12.332Z,2.00
2023-05-11T10:36:40.625Z,2.38
2023-05-11T10:39:09.069Z,1.95
2023-05-11T10:41:43.397Z,2.10
2023-05-11T10:44:20.280Z,3.95
2023-05-11T10:46:58.757Z,2.88
2023-05-11T10:49:38.098Z,3.28
2023-05-11T10:52:13.491Z,2.67
2023-05-11T10:54:47.508Z,3.30
2023-05-11T10:57:22.109Z,3.08
2023-05-11T10:59:58.123Z,3.63
2023-05-11T11:02:32.665Z,3.00
2023-05-11T11:05:05.667Z,2.58
2023-05-11T11:07:34.387Z,2.90
2023-05-11T11:10:06.172Z,2.72
2023-05-11T11:12:35.640Z,2.22
2023-05-11T11:15:05.112Z,3.45
2023-05-11T11:17:34.907Z,3.00
2023-05-11T11:20:07.000Z,2.60
2023-05-11T11:22:46.939Z,3.00
2023-05-11T11:25:16.422Z,2.80
2023-05-11T11:27:58.233Z,2.83
2023-05-11T11:30:28.496Z,2.35
2023-05-11T11:32:57.481Z,3.10
2023-05-11T11:35:44.828Z,2.67
2023-05-11T11:38:15.282Z,3.65
2023-05-11T11:43:17.738Z,2.47
2023-05-11T11:45:56.058Z,2.42
2023-05-11T11:48:26.721Z,2.60
2023-05-11T11:51:04.056Z,2.50
2023-05-11T11:54:08.487Z,2.50
2023-05-11T11:56:44.898Z,2.85
2023-05-11T11:59:14.945Z,3.00
2023-05-11T12:01:43.989Z,2.80
2023-05-11T12:04:27.229Z,2.53
2023-05-11T12:06:58.877Z,2.60
2023-05-11T12:09:27.809Z,3.13
2023-05-11T12:11:57.570Z,2.92
2023-05-11T12:14:26.857Z,4.10
2023-05-11T12:17:05.595Z,2.72
2023-05-11T12:19:33.791Z,2.78
2023-05-11T12:22:02.071Z,2.83
2023-05-11T12:24:30.282Z,5.68
2023-05-11T12:27:00.043Z,2.50
2023-05-11T12:29:28.343Z,2.63
2023-05-11T12:31:56.759Z,3.92
2023-05-11T12:34:25.055Z,2.55
2023-05-11T12:36:54.065Z,6.18
2023-05-11T12:39:23.044Z,2.30
2023-05-11T12:41:51.756Z,2.78
2023-05-11T12:44:22.126Z,2.35
2023-05-11T12:46:51.093Z,3.80
2023-05-11T12:49:24.790Z,2.17
2023-05-11T12:52:02.213Z,3.42
2023-05-11T12:54:31.625Z,2.38
2023-05-11T12:56:59.965Z,2.40
2023-05-11T12:59:33.589Z,2.40
2023-05-11T13:02:08.696Z,8.18
2023-05-11T13:04:37.197Z,13.45
2023-05-11T13:07:05.523Z,2.28
2023-05-11T13:09:33.765Z,2.40
2023-05-11T13:12:18.219Z,2.03
2023-05-11T13:14:48.897Z,2.85
2023-05-11T13:17:31.161Z,2.67
2023-05-11T13:19:59.505Z,2.67
2023-05-11T13:22:27.816Z,3.70
2023-05-11T13:25:03.421Z,16.30
2023-05-11T13:27:31.609Z,3.17
2023-05-11T13:30:01.222Z,4.60
2023-05-11T13:32:29.424Z,3.10
2023-05-11T13:34:57.724Z,2.83
2023-05-11T13:37:26.029Z,2.30
2023-05-11T13:39:54.216Z,5.03
2023-05-11T13:42:22.436Z,2.80
2023-05-11T13:44:51.067Z,2.95
2023-05-11T13:47:20.595Z,2.45
2023-05-11T13:49:48.924Z,2.60
2023-05-11T13:52:17.173Z,2.47
2023-05-11T13:54:45.442Z,13.68
2023-05-11T13:57:14.081Z,3.50
2023-05-11T13:59:42.463Z,3.80
2023-05-11T14:02:11.579Z,4.93
2023-05-11T14:04:41.653Z,2.75
2023-05-11T14:07:09.852Z,3.38
2023-05-11T14:09:38.058Z,3.53
2023-05-11T14:12:06.690Z,3.65
2023-05-11T14:14:34.940Z,3.40
2023-05-11T14:17:03.203Z,3.70
2023-05-11T14:19:31.511Z,4.43
2023-05-11T14:22:01.170Z,4.07
2023-05-11T14:24:29.374Z,3.75
2023-05-11T14:26:57.572Z,3.85
2023-05-11T14:29:25.901Z,4.00
2023-05-11T14:31:54.174Z,3.63
2023-05-11T14:34:22.422Z,4.15
2023-05-11T14:36:50.697Z,3.85
2023-05-11T14:39:20.303Z,3.90
2023-05-11T14:41:48.929Z,3.40
2023-05-11T14:44:17.150Z,3.15
2023-05-11T14:46:45.460Z,3.58
2023-05-11T14:49:13.768Z,4.07
2023-05-11T14:51:41.965Z,4.30
2023-05-11T14:54:10.695Z,4.32
2023-05-11T14:56:40.282Z,4.60
2023-05-11T14:59:08.619Z,4.85
2023-05-11T15:01:36.852Z,5.82
2023-05-11T15:04:08.038Z,6.68
2023-05-11T15:06:36.488Z,4.80
2023-05-11T15:09:04.724Z,5.90
2023-05-11T15:11:33.487Z,4.35
2023-05-11T15:14:03.149Z,5.30
2023-05-11T15:16:31.960Z,7.10
2023-05-11T15:19:00.553Z,5.93
2023-05-11T15:21:29.067Z,5.45
2023-05-11T15:23:57.253Z,5.78
2023-05-11T15:26:25.503Z,5.75
2023-05-11T15:28:53.766Z,6.00
2023-05-11T15:31:23.900Z,4.97
2023-05-11T15:33:52.121Z,5.23
2023-05-11T15:36:20.491Z,5.25
2023-05-11T15:38:48.667Z,9.27
2023-05-11T15:41:17.405Z,4.88
2023-05-11T15:43:45.735Z,4.82
2023-05-11T15:46:13.923Z,5.38
2023-05-11T15:48:43.505Z,5.30
2023-05-11T15:51:12.823Z,5.35
2023-05-11T15:53:41.046Z,6.00
2023-05-11T15:56:09.266Z,6.10
2023-05-11T15:58:37.482Z,6.27
2023-05-11T16:01:06.010Z,6.15
2023-05-11T16:03:34.369Z,6.80
2023-05-11T16:06:04.063Z,4.97
2023-05-11T16:08:32.842Z,5.38
2023-05-11T16:11:01.066Z,4.60
2023-05-11T16:13:29.302Z,4.65
2023-05-11T16:15:57.510Z,4.80
2023-05-11T16:18:25.767Z,5.10
2023-05-11T16:20:54.054Z,5.00
2023-05-11T16:23:25.535Z,4.70
2023-05-11T16:25:53.888Z,5.70
2023-05-11T16:28:22.081Z,5.90
2023-05-11T16:30:50.323Z,5.40
2023-05-11T16:33:19.951Z,5.68
2023-05-11T16:35:48.302Z,6.20
2023-05-11T16:38:19.517Z,5.80
2023-05-11T16:40:51.122Z,5.68
2023-05-11T16:43:19.393Z,6.37
2023-05-11T16:45:47.680Z,6.28
2023-05-11T16:48:15.896Z,6.47
2023-05-11T16:50:44.172Z,6.40
2023-05-11T16:53:12.422Z,7.15
2023-05-11T16:55:40.676Z,6.87
2023-05-11T16:58:10.663Z,9.73
2023-05-11T17:00:38.890Z,8.07
2023-05-11T17:03:07.172Z,8.02
2023-05-11T17:05:35.473Z,7.10
2023-05-11T17:08:03.717Z,7.00
2023-05-11T17:10:31.918Z,7.43
2023-05-11T17:13:00.119Z,9.93
2023-05-11T17:15:29.728Z,7.40
2023-05-11T17:17:59.404Z,8.90
2023-05-11T17:20:27.692Z,8.70
2023-05-11T17:22:55.946Z,11.70
2023-05-11T17:25:24.353Z,9.43
2023-05-11T17:27:52.661Z,10.60
2023-05-11T17:30:30.089Z,10.63
2023-05-11T17:33:15.317Z,10.83
2023-05-11T17:35:43.712Z,10.43
2023-05-11T17:38:11.933Z,11.17
2023-05-11T17:40:40.152Z,11.10
2023-05-11T17:43:08.375Z,12.13
2023-05-11T17:45:36.654Z,13.07
2023-05-11T17:48:05.108Z,13.57
2023-05-11T17:50:34.695Z,13.90
2023-05-11T17:53:02.957Z,15.37
2023-05-11T17:55:31.267Z,14.80
2023-05-11T17:57:59.507Z,15.73
2023-05-11T18:00:28.117Z,15.20
2023-05-11T18:02:58.769Z,15.13
2023-05-11T18:05:40.411Z,17.10
2023-05-11T18:08:16.813Z,15.33
2023-05-11T18:10:45.542Z,15.67
2023-05-11T18:13:15.232Z,16.63
2023-05-11T18:15:44.937Z,15.30
2023-05-11T18:18:13.336Z,16.97
2023-05-11T18:20:42.266Z,16.73
2023-05-11T18:23:10.490Z,17.37
2023-05-11T18:25:40.075Z,17.20
2023-05-11T18:28:08.386Z,17.23
2023-05-11T18:30:36.870Z,17.57
2023-05-11T18:33:05.300Z,16.87
2023-05-11T18:35:33.545Z,16.57
2023-05-11T18:38:04.114Z,16.50
2023-05-11T18:40:32.392Z,17.80
2023-05-11T18:43:02.040Z,16.97
2023-05-11T18:45:30.473Z,17.43
2023-05-11T18:47:58.943Z,18.00
2023-05-11T18:50:29.498Z,17.33
2023-05-11T18:52:57.814Z,17.50
2023-05-11T18:55:28.979Z,17.70
2023-05-11T18:57:59.387Z,17.73
2023-05-11T19:00:28.977Z,16.80
2023-05-11T19:02:57.241Z,16.27
2023-05-11T19:05:25.486Z,16.17
2023-05-11T19:07:53.729Z,16.17
2023-05-11T19:10:24.182Z,15.47
2023-05-11T19:12:52.398Z,17.43
2023-05-11T19:15:20.690Z,16.00
2023-05-11T19:17:50.338Z,16.57
2023-05-11T19:20:18.637Z,16.23
2023-05-11T19:22:46.979Z,16.27
2023-05-11T19:25:15.164Z,17.00
2023-05-11T19:27:43.411Z,15.77
2023-05-11T19:30:12.132Z,15.50
2023-05-11T19:32:42.353Z,15.40
2023-05-11T19:35:14.598Z,15.47
2023-05-11T19:37:43.079Z,16.43
2023-05-11T19:40:43.986Z,16.03
2023-05-11T19:43:00.956Z,15.70
2023-05-11T19:45:31.410Z,16.57
2023-05-11T19:48:02.752Z,17.77
2023-05-11T19:50:32.465Z,16.67
2023-05-11T19:53:00.668Z,16.90
2023-05-11T19:55:29.485Z,16.77
2023-05-11T19:57:57.664Z,17.17
2023-05-11T20:00:25.920Z,17.43
2023-05-11T20:02:54.224Z,17.30
2023-05-11T20:05:22.699Z,17.30
2023-05-11T20:07:52.341Z,17.33
2023-05-11T20:10:21.195Z,17.03
2023-05-11T20:12:51.225Z,17.37
2023-05-11T20:15:19.544Z,17.60
2023-05-11T20:17:48.031Z,18.07
2023-05-11T20:20:16.262Z,17.90
2023-05-11T20:22:44.433Z,16.60
2023-05-11T20:25:18.254Z,17.17
2023-05-11T20:27:46.832Z,17.90
2023-05-11T20:30:15.272Z,16.97
2023-05-11T20:35:14.592Z,16.83
2023-05-11T20:37:42.759Z,16.27
2023-05-11T20:40:11.357Z,15.67
2023-05-11T20:42:40.923Z,15.50
2023-05-11T20:45:09.729Z,16.03
2023-05-11T20:47:38.006Z,16.40
2023-05-11T20:50:06.831Z,16.40
2023-05-11T20:52:35.181Z,15.40
2023-05-11T20:55:03.396Z,15.87
2023-05-11T20:57:31.601Z,16.83
2023-05-11T21:00:04.602Z,16.87
2023-05-11T21:02:33.402Z,16.40
2023-05-11T21:05:02.623Z,16.73
2023-05-11T21:07:31.066Z,16.63
2023-05-11T21:10:00.614Z,17.43
2023-05-11T21:12:28.832Z,17.00
2023-05-11T21:14:57.291Z,17.97
2023-05-11T21:17:26.980Z,17.60
2023-05-11T21:19:55.204Z,18.13
2023-05-11T21:22:23.369Z,17.90
2023-05-11T21:24:51.719Z,18.53
2023-05-11T21:27:19.922Z,19.77
2023-05-11T21:29:48.173Z,18.50
2023-05-11T21:32:16.438Z,20.20
2023-05-11T21:34:46.021Z,18.13
2023-05-11T21:37:14.873Z,17.47
2023-05-11T21:39:43.355Z,16.77
2023-05-11T21:42:11.570Z,16.63
2023-05-11T21:44:39.773Z,16.67
2023-05-11T21:47:08.082Z,17.10
2023-05-11T21:49:36.693Z,16.97
2023-05-11T21:52:06.832Z,17.00
2023-05-11T21:54:35.066Z,17.37
2023-05-11T21:57:03.682Z,18.07
2023-05-11T21:59:31.912Z,17.77
2023-05-11T22:02:00.159Z,18.37
2023-05-11T22:04:28.423Z,18.27
2023-05-11T22:06:58.792Z,19.00
2023-05-11T22:09:31.415Z,19.80
2023-05-11T22:11:59.723Z,18.90
2023-05-11T22:14:27.972Z,19.80
2023-05-11T22:16:56.158Z,23.13
2023-05-11T22:19:24.481Z,21.17
2023-05-11T22:21:52.671Z,24.40
2023-05-11T22:24:21.555Z,23.87
2023-05-11T22:26:51.466Z,25.43
2023-05-11T22:29:19.656Z,25.40
2023-05-11T22:31:48.920Z,26.07
2023-05-11T22:34:17.233Z,29.93
2023-05-11T22:36:45.650Z,31.87
2023-05-11T22:39:13.854Z,30.30
2023-05-11T22:41:42.058Z,31.67
2023-05-11T22:44:11.643Z,29.90
2023-05-11T22:46:39.858Z,33.97
2023-05-11T22:49:08.267Z,33.50
2023-05-11T22:51:36.488Z,34.40
2023-05-11T22:54:04.697Z,33.20
2023-05-11T22:56:32.901Z,33.17
2023-05-11T22:59:01.130Z,33.57
2023-05-11T23:01:30.923Z,34.83
2023-05-11T23:03:59.152Z,36.37
2023-05-11T23:06:27.348Z,36.37
2023-05-11T23:08:55.537Z,37.33
2023-05-11T23:11:24.239Z,35.30
2023-05-11T23:13:52.467Z,36.07
2023-05-11T23:16:20.738Z,39.37
2023-05-11T23:18:50.589Z,39.33
2023-05-11T23:21:18.881Z,40.80
2023-05-11T23:23:47.203Z,36.83
2023-05-11T23:26:15.407Z,34.83
2023-05-11T23:28:44.364Z,34.30
2023-05-11T23:31:12.607Z,36.20
2023-05-11T23:33:40.855Z,39.03
2023-05-11T23:36:11.555Z,40.00
2023-05-11T23:38:39.755Z,35.37
2023-05-11T23:41:07.969Z,36.07
2023-05-11T23:43:37.216Z,35.90
2023-05-11T23:46:05.411Z,36.73
2023-05-11T23:48:33.675Z,37.10
2023-05-11T23:51:01.999Z,36.87
2023-05-11T23:53:31.704Z,38.47
2023-05-11T23:55:59.901Z,35.17
2023-05-11T23:58:28.183Z,38.77
